Time;durP1;ratioP1;P1;durP2;ratioP2;P2;SDS_P1;SDS_P2;PMS_P1;PMS_P2;Temp;Humidity;BMP_temperature;BMP_pressure;BME280_temperature;BME280_humidity;BME280_pressure;Samples;Min_cycle;Max_cycle;Signal;HPM_P1;HPM_P2
2022/06/26 00:00:41;;;;;;;1.08;0.50;;;16.20;99.90;;;;;;5013026;28;20100;-75
2022/06/26 00:03:08;;;;;;;2.35;0.90;;;16.30;99.90;;;;;;5013179;28;20022;-73
2022/06/26 00:05:36;;;;;;;2.88;0.93;;;16.30;99.90;;;;;;5012773;28;20072;-73
2022/06/26 00:08:04;;;;;;;2.78;1.50;;;16.50;99.90;;;;;;5012375;28;20032;-73
2022/06/26 00:10:31;;;;;;;0.90;0.60;;;16.70;99.90;;;;;;5012986;28;20088;-72
2022/06/26 00:12:58;;;;;;;2.67;0.98;;;16.70;99.90;;;;;;5013035;28;20026;-73
2022/06/26 00:15:26;;;;;;;1.63;1.00;;;16.80;99.90;;;;;;5013071;28;20036;-73
2022/06/26 00:17:53;;;;;;;2.25;0.85;;;16.90;99.90;;;;;;5013037;28;20018;-73
2022/06/26 00:20:21;;;;;;;1.60;0.60;;;17.00;99.90;;;;;;5013051;28;20029;-71
2022/06/26 00:22:48;;;;;;;2.33;1.35;;;17.10;99.90;;;;;;5011509;28;20033;-72
2022/06/26 00:25:16;;;;;;;1.73;0.90;;;17.20;99.90;;;;;;5012910;28;20474;-73
2022/06/26 00:27:45;;;;;;;2.83;0.85;;;17.30;99.90;;;;;;5011541;28;20029;-73
2022/06/26 00:30:13;;;;;;;2.37;0.60;;;17.30;99.90;;;;;;5011666;28;20538;-72
2022/06/26 00:32:41;;;;;;;2.85;0.90;;;17.20;99.90;;;;;;5012897;28;20737;-73
2022/06/26 00:35:09;;;;;;;2.13;1.38;;;17.40;99.90;;;;;;5013205;28;20053;-73
2022/06/26 00:37:37;;;;;;;4.38;3.30;;;17.50;99.90;;;;;;5012842;28;20026;-72
2022/06/26 00:40:05;;;;;;;5.78;3.30;;;17.50;99.90;;;;;;5013043;28;20024;-73
2022/06/26 00:42:32;;;;;;;6.10;2.90;;;17.60;99.90;;;;;;5012627;28;20052;-75
2022/06/26 00:45:00;;;;;;;4.05;2.97;;;17.60;99.90;;;;;;5012804;28;20113;-76
2022/06/26 00:47:27;;;;;;;4.85;2.75;;;17.80;99.90;;;;;;5012636;28;20026;-75
2022/06/26 00:49:54;;;;;;;3.28;2.80;;;18.10;99.90;;;;;;5011449;28;20101;-75
2022/06/26 00:52:22;;;;;;;4.47;3.10;;;18.10;99.90;;;;;;5012844;28;20014;-76
2022/06/26 00:54:51;;;;;;;7.75;3.42;;;18.00;99.90;;;;;;5012733;28;20072;-74
2022/06/26 00:57:20;;;;;;;5.10;3.40;;;18.00;99.90;;;;;;5012498;28;20072;-72
2022/06/26 00:59:48;;;;;;;3.97;2.72;;;17.90;99.90;;;;;;5012643;28;20486;-73
2022/06/26 01:02:16;;;;;;;3.92;2.50;;;17.90;99.90;;;;;;5012396;28;20145;-73
2022/06/26 01:04:43;;;;;;;4.20;2.88;;;18.00;99.90;;;;;;5012388;28;20053;-73
2022/06/26 01:07:11;;;;;;;5.72;2.65;;;18.10;99.90;;;;;;5011153;28;20057;-73
2022/06/26 01:09:38;;;;;;;4.25;2.00;;;18.10;99.90;;;;;;5012320;28;20026;-73
2022/06/26 01:12:07;;;;;;;3.15;1.77;;;18.10;99.90;;;;;;5012491;28;20021;-73
2022/06/26 01:14:34;;;;;;;5.05;2.47;;;18.10;99.90;;;;;;5012289;28;20018;-73
2022/06/26 01:17:01;;;;;;;3.30;2.45;;;18.20;99.90;;;;;;5011201;28;20041;-74
2022/06/26 01:19:30;;;;;;;3.97;2.13;;;18.30;99.90;;;;;;5012987;28;20485;-74
2022/06/26 01:21:57;;;;;;;3.78;1.70;;;18.40;99.90;;;;;;5015718;28;20426;-73
2022/06/26 01:24:25;;;;;;;3.85;2.80;;;18.50;99.90;;;;;;5015251;28;20060;-74
2022/06/26 01:26:52;;;;;;;4.40;2.85;;;18.80;99.90;;;;;;5016089;28;20498;-74
2022/06/26 01:29:21;;;;;;;4.78;2.55;;;18.80;99.90;;;;;;5015461;28;20022;-73
2022/06/26 01:31:48;;;;;;;3.40;2.38;;;18.90;99.90;;;;;;5013879;28;20034;-74
2022/06/26 01:34:16;;;;;;;5.63;3.00;;;19.20;99.90;;;;;;5015645;28;20022;-74
2022/06/26 01:36:43;;;;;;;2.15;1.50;;;19.30;99.90;;;;;;5015480;28;20384;-73
2022/06/26 01:39:12;;;;;;;1.23;0.73;;;19.00;99.90;;;;;;5015235;28;20045;-74
2022/06/26 01:41:39;;;;;;;1.95;1.10;;;19.10;99.90;;;;;;5013715;28;20026;-73
2022/06/26 01:44:07;;;;;;;2.35;0.93;;;19.10;99.90;;;;;;5014445;28;20033;-73
2022/06/26 01:46:35;;;;;;;1.33;0.88;;;19.20;99.90;;;;;;5013946;28;20542;-73
2022/06/26 01:49:03;;;;;;;2.72;1.10;;;19.30;99.90;;;;;;5015202;28;20028;-72
2022/06/26 01:51:30;;;;;;;3.83;1.70;;;19.30;99.90;;;;;;5015195;28;20386;-72
2022/06/26 01:53:58;;;;;;;3.25;1.00;;;19.60;99.90;;;;;;5013548;28;20026;-73
2022/06/26 01:56:26;;;;;;;4.55;1.00;;;19.60;99.90;;;;;;5015208;28;20088;-73
2022/06/26 01:58:53;;;;;;;1.48;0.70;;;19.60;99.90;;;;;;5015060;28;20117;-74
2022/06/26 02:01:21;;;;;;;2.25;0.63;;;19.70;99.90;;;;;;5013894;28;20037;-74
2022/06/26 02:03:48;;;;;;;1.38;0.88;;;19.80;99.90;;;;;;5015149;28;20042;-74
2022/06/26 02:06:15;;;;;;;3.10;0.82;;;19.80;99.90;;;;;;5014776;28;20053;-74
2022/06/26 02:08:43;;;;;;;2.00;1.33;;;19.70;99.90;;;;;;5013721;28;20091;-74
2022/06/26 02:13:57;;;;;;;2.45;0.93;;;19.60;99.90;;;;;;5014947;28;20064;-75
2022/06/26 02:16:30;;;;;;;2.88;1.17;;;19.70;99.90;;;;;;5014922;28;20554;-75
2022/06/26 02:18:58;;;;;;;2.75;1.20;;;19.70;99.90;;;;;;5013493;28;20105;-75
2022/06/26 02:21:28;;;;;;;2.45;1.30;;;19.70;99.90;;;;;;5013449;28;20124;-76
2022/06/26 02:23:56;;;;;;;2.30;0.90;;;19.40;99.90;;;;;;5014738;28;20057;-73
2022/06/26 02:26:24;;;;;;;1.27;0.82;;;19.30;99.90;;;;;;5013182;28;20655;-73
2022/06/26 02:28:51;;;;;;;2.05;1.10;;;19.20;99.90;;;;;;5014708;28;20489;-71
2022/06/26 02:31:19;;;;;;;2.95;1.30;;;19.30;99.90;;;;;;5014069;28;20109;-72
2022/06/26 02:33:46;;;;;;;1.70;1.10;;;19.20;99.90;;;;;;5013245;28;20064;-71
2022/06/26 02:36:13;;;;;;;2.38;1.02;;;19.30;99.90;;;;;;5014077;28;20061;-71
2022/06/26 02:38:41;;;;;;;2.75;1.30;;;19.50;99.90;;;;;;5014498;28;20022;-71
2022/06/26 02:41:09;;;;;;;4.55;1.50;;;19.60;99.90;;;;;;5014462;28;20474;-71
2022/06/26 02:43:36;;;;;;;2.05;0.75;;;19.90;99.90;;;;;;5014478;28;20026;-71
2022/06/26 02:46:04;;;;;;;3.22;1.48;;;19.80;99.90;;;;;;5014586;28;20017;-71
2022/06/26 02:48:31;;;;;;;2.08;1.20;;;19.70;99.90;;;;;;5014371;28;20030;-71
2022/06/26 02:50:58;;;;;;;1.77;0.77;;;19.90;99.90;;;;;;5012841;28;20493;-71
2022/06/26 02:53:26;;;;;;;1.83;1.15;;;20.00;99.90;;;;;;5014260;28;20022;-71
2022/06/26 02:55:53;;;;;;;2.63;1.30;;;20.00;99.90;;;;;;5014042;28;20022;-71
2022/06/26 02:58:20;;;;;;;3.20;1.35;;;20.00;99.90;;;;;;5014403;28;20052;-71
2022/06/26 03:00:48;;;;;;;1.98;1.50;;;20.20;99.90;;;;;;5014320;28;20034;-71
2022/06/26 03:03:15;;;;;;;3.08;1.27;;;20.50;99.90;;;;;;5014118;28;20029;-71
2022/06/26 03:05:42;;;;;;;5.10;1.23;;;20.70;99.90;;;;;;5013798;28;20038;-71
2022/06/26 03:08:10;;;;;;;1.98;0.70;;;20.50;99.90;;;;;;5014028;28;20038;-71
2022/06/26 03:10:37;;;;;;;2.10;1.10;;;20.20;99.90;;;;;;5012519;28;20548;-71
2022/06/26 03:13:04;;;;;;;1.83;0.68;;;20.00;99.90;;;;;;5013997;28;20014;-71
2022/06/26 03:15:33;;;;;;;1.60;0.60;;;19.70;99.90;;;;;;5012550;28;20029;-71
2022/06/26 03:18:04;;;;;;;1.90;0.65;;;19.80;99.90;;;;;;5013836;28;20018;-71
2022/06/26 03:20:31;;;;;;;0.82;0.40;;;19.80;99.90;;;;;;5013816;28;20018;-71
2022/06/26 03:22:59;;;;;;;1.33;0.65;;;19.70;99.90;;;;;;5012287;28;20033;-72
2022/06/26 03:25:26;;;;;;;1.05;0.50;;;19.70;99.90;;;;;;5013918;28;20036;-71
2022/06/26 03:27:53;;;;;;;2.95;0.50;;;19.70;99.90;;;;;;5013563;28;20026;-71
2022/06/26 03:30:21;;;;;;;1.30;0.50;;;19.80;99.90;;;;;;5013601;28;20094;-71
2022/06/26 03:32:48;;;;;;;1.98;0.60;;;19.90;99.90;;;;;;5013500;28;20040;-70
2022/06/26 03:35:15;;;;;;;1.40;0.70;;;19.90;99.90;;;;;;5012301;28;20018;-71
2022/06/26 03:37:43;;;;;;;0.90;0.50;;;20.00;99.90;;;;;;5012147;28;20105;-71
2022/06/26 03:40:11;;;;;;;1.90;0.80;;;20.10;99.90;;;;;;5013530;28;20021;-71
2022/06/26 03:42:38;;;;;;;1.65;0.60;;;20.10;99.90;;;;;;5012512;28;20029;-71
2022/06/26 03:45:06;;;;;;;1.27;0.63;;;19.90;99.90;;;;;;5013387;28;20022;-71
2022/06/26 03:47:33;;;;;;;0.82;0.30;;;19.80;99.90;;;;;;5013425;28;20054;-71
2022/06/26 03:50:01;;;;;;;1.40;0.77;;;19.80;99.90;;;;;;5013326;28;20026;-70
2022/06/26 03:52:28;;;;;;;2.63;1.08;;;19.70;99.90;;;;;;5013288;28;20359;-70
2022/06/26 03:54:56;;;;;;;1.05;0.50;;;19.50;99.90;;;;;;5013351;28;20022;-71
2022/06/26 03:57:23;;;;;;;1.42;0.82;;;19.30;99.90;;;;;;5012097;28;20054;-71
2022/06/26 03:59:51;;;;;;;3.15;1.38;;;19.30;99.90;;;;;;5013253;28;20030;-71
2022/06/26 04:02:18;;;;;;;1.27;0.80;;;19.30;99.90;;;;;;5013216;28;20032;-71
2022/06/26 04:04:46;;;;;;;1.48;0.75;;;19.50;99.90;;;;;;5013157;28;20030;-71
2022/06/26 04:07:13;;;;;;;1.55;0.60;;;19.50;99.90;;;;;;5012866;28;20054;-72
2022/06/26 04:09:41;;;;;;;1.75;0.80;;;19.40;99.90;;;;;;5013247;28;20418;-71
2022/06/26 04:12:08;;;;;;;0.90;0.50;;;19.50;99.90;;;;;;5012981;28;20018;-71
2022/06/26 04:14:36;;;;;;;2.05;0.45;;;19.50;99.90;;;;;;5013009;28;20022;-72
2022/06/26 04:17:04;;;;;;;0.40;0.40;;;19.60;99.90;;;;;;5011711;28;20026;-72
2022/06/26 04:19:31;;;;;;;0.90;0.40;;;19.50;99.90;;;;;;5011819;28;20033;-71
2022/06/26 04:21:58;;;;;;;1.02;0.50;;;19.50;99.90;;;;;;5013018;28;20057;-71
2022/06/26 04:24:26;;;;;;;0.55;0.30;;;19.60;99.90;;;;;;5013117;28;20022;-71
2022/06/26 04:26:53;;;;;;;1.35;0.38;;;19.70;99.90;;;;;;5011710;28;20034;-72
2022/06/26 04:29:20;;;;;;;0.90;0.30;;;19.60;99.90;;;;;;5013085;28;20049;-71
2022/06/26 04:31:48;;;;;;;0.85;0.40;;;19.60;99.90;;;;;;5013074;28;20062;-71
2022/06/26 04:34:15;;;;;;;1.90;0.32;;;19.50;99.90;;;;;;5011539;28;20030;-71
2022/06/26 04:36:43;;;;;;;0.22;0.20;;;19.50;99.90;;;;;;5013485;28;20383;-71
2022/06/26 04:39:10;;;;;;;2.25;0.82;;;19.50;99.90;;;;;;5012924;28;20026;-72
2022/06/26 04:41:39;;;;;;;0.85;0.38;;;19.40;99.90;;;;;;5012859;28;20022;-71
2022/06/26 04:44:12;;;;;;;0.73;0.38;;;19.40;99.90;;;;;;5011498;28;20030;-71
2022/06/26 04:46:41;;;;;;;1.05;0.40;;;19.50;99.90;;;;;;5012788;28;20030;-72
2022/06/26 04:49:08;;;;;;;1.10;0.70;;;19.40;99.90;;;;;;5011461;28;20121;-72
2022/06/26 04:51:36;;;;;;;1.15;0.40;;;19.40;99.90;;;;;;5012711;28;20026;-72
2022/06/26 04:54:04;;;;;;;2.10;0.60;;;19.30;99.90;;;;;;5013768;28;20067;-71
2022/06/26 04:56:32;;;;;;;3.28;1.00;;;19.40;99.90;;;;;;5016854;28;20030;-71
2022/06/26 04:58:59;;;;;;;1.30;0.70;;;19.40;99.90;;;;;;5016330;28;20021;-72
2022/06/26 05:01:28;;;;;;;2.08;0.82;;;19.30;99.90;;;;;;5016428;28;20482;-72
2022/06/26 05:03:55;;;;;;;3.10;1.02;;;19.20;99.90;;;;;;5016427;28;20022;-72
2022/06/26 05:06:23;;;;;;;2.42;1.05;;;19.10;99.90;;;;;;5015986;28;20100;-71
2022/06/26 05:08:51;;;;;;;1.73;0.80;;;19.10;99.90;;;;;;5016254;28;20041;-70
2022/06/26 05:11:19;;;;;;;3.22;1.10;;;19.10;99.90;;;;;;5014775;28;20100;-69
2022/06/26 05:13:46;;;;;;;1.30;0.85;;;19.10;99.90;;;;;;5014608;28;20134;-71
2022/06/26 05:16:13;;;;;;;2.72;1.50;;;19.00;99.90;;;;;;5016152;28;20355;-70
2022/06/26 05:18:41;;;;;;;2.70;1.23;;;18.90;99.90;;;;;;5014530;28;20508;-70
2022/06/26 05:21:08;;;;;;;1.92;1.35;;;18.80;99.90;;;;;;5016208;28;20022;-71
2022/06/26 05:23:36;;;;;;;3.13;1.38;;;18.70;99.90;;;;;;5015834;28;20026;-70
2022/06/26 05:26:03;;;;;;;3.50;1.00;;;18.70;99.90;;;;;;5015826;28;20061;-70
2022/06/26 05:28:31;;;;;;;4.18;1.42;;;18.70;99.90;;;;;;5015720;28;20040;-69
2022/06/26 05:30:58;;;;;;;2.50;1.40;;;18.70;99.90;;;;;;5015571;28;20022;-69
2022/06/26 05:33:25;;;;;;;2.55;1.40;;;18.70;99.90;;;;;;5015661;28;20386;-69
2022/06/26 05:35:53;;;;;;;2.38;1.25;;;18.60;99.90;;;;;;5015577;28;20022;-70
2022/06/26 05:38:20;;;;;;;2.35;1.30;;;18.60;99.90;;;;;;5015598;28;20018;-69
2022/06/26 05:40:47;;;;;;;2.35;1.23;;;18.50;99.90;;;;;;5015407;28;20030;-69
2022/06/26 05:43:15;;;;;;;2.20;1.20;;;18.40;99.90;;;;;;5015522;28;20025;-69
2022/06/26 05:45:42;;;;;;;1.98;1.10;;;18.30;99.90;;;;;;5015430;28;20018;-69
2022/06/26 05:48:10;;;;;;;2.40;1.23;;;18.30;99.90;;;;;;5015440;28;20022;-69
2022/06/26 05:50:37;;;;;;;3.92;1.40;;;18.30;99.90;;;;;;5015283;28;20669;-69
2022/06/26 05:53:04;;;;;;;2.60;1.60;;;18.20;99.90;;;;;;5013951;28;20112;-69
2022/06/26 05:55:33;;;;;;;3.45;1.80;;;18.20;99.90;;;;;;5015410;28;20046;-70
2022/06/26 05:58:01;;;;;;;3.80;1.50;;;18.10;99.90;;;;;;5015265;28;20014;-68
2022/06/26 06:00:28;;;;;;;5.25;1.92;;;18.00;99.90;;;;;;5014986;28;20022;-69
2022/06/26 06:02:56;;;;;;;4.38;1.65;;;17.90;99.90;;;;;;5015239;28;20022;-71
2022/06/26 06:05:25;;;;;;;3.97;1.70;;;17.80;99.90;;;;;;5014128;28;20376;-69
2022/06/26 06:07:54;;;;;;;4.05;1.70;;;17.70;99.90;;;;;;5014720;28;20022;-69
2022/06/26 06:10:22;;;;;;;2.65;1.58;;;17.60;99.90;;;;;;5014771;28;20029;-70
2022/06/26 06:12:50;;;;;;;3.30;2.00;;;17.50;99.90;;;;;;5015190;28;20097;-69
2022/06/26 06:15:19;;;;;;;3.72;1.90;;;17.40;99.90;;;;;;5013457;28;20022;-71
2022/06/26 06:17:46;;;;;;;4.68;1.67;;;17.30;99.90;;;;;;5014763;28;20076;-71
2022/06/26 06:20:19;;;;;;;3.83;1.63;;;17.30;99.90;;;;;;5014751;28;20105;-71
2022/06/26 06:22:53;;;;;;;5.15;1.83;;;17.10;99.90;;;;;;5014773;28;20144;-71
2022/06/26 06:25:21;;;;;;;2.95;1.58;;;17.10;99.90;;;;;;5015041;28;20049;-71
2022/06/26 06:27:49;;;;;;;3.67;1.70;;;16.90;99.90;;;;;;5013287;28;20028;-71
2022/06/26 06:30:17;;;;;;;4.28;1.70;;;16.90;99.90;;;;;;5014536;28;20076;-71
2022/06/26 06:32:45;;;;;;;2.65;1.60;;;16.80;99.90;;;;;;5014560;28;20022;-70
2022/06/26 06:35:13;;;;;;;4.05;1.52;;;16.70;99.90;;;;;;5014737;28;20056;-70
2022/06/26 06:37:42;;;;;;;3.20;2.03;;;16.60;99.90;;;;;;5013144;28;20018;-70
2022/06/26 06:40:12;;;;;;;3.22;2.15;;;16.60;99.90;;;;;;5014579;28;20105;-70
2022/06/26 06:42:40;;;;;;;3.83;1.85;;;16.40;99.90;;;;;;5014364;28;20104;-70
2022/06/26 06:45:08;;;;;;;3.83;2.08;;;16.40;99.90;;;;;;5014392;28;20108;-69
2022/06/26 06:47:36;;;;;;;4.93;2.08;;;16.30;99.90;;;;;;5014274;28;20506;-71
2022/06/26 06:50:05;;;;;;;3.85;2.20;;;16.30;99.90;;;;;;5014195;28;20105;-72
2022/06/26 06:52:32;;;;;;;3.78;2.65;;;16.20;99.90;;;;;;5014128;28;20062;-72
2022/06/26 06:55:00;;;;;;;5.25;2.03;;;16.10;99.90;;;;;;5014115;28;20383;-72
2022/06/26 06:57:27;;;;;;;5.28;2.45;;;15.90;99.90;;;;;;5012704;28;20513;-72
2022/06/26 06:59:55;;;;;;;3.70;2.00;;;15.90;99.90;;;;;;5014458;28;20029;-71
2022/06/26 07:02:22;;;;;;;4.95;2.47;;;15.70;99.90;;;;;;5012599;28;20022;-72
2022/06/26 07:04:49;;;;;;;4.93;2.30;;;15.50;99.90;;;;;;5013927;28;20038;-72
2022/06/26 07:07:17;;;;;;;4.05;2.30;;;15.40;99.90;;;;;;5012413;28;20041;-71
2022/06/26 07:09:44;;;;;;;4.60;2.42;;;15.30;99.90;;;;;;5013947;28;20407;-73
2022/06/26 07:12:11;;;;;;;5.15;2.80;;;15.20;99.90;;;;;;5012498;28;20026;-72
2022/06/26 07:14:39;;;;;;;3.83;2.30;;;15.00;99.90;;;;;;5013820;28;20026;-71
2022/06/26 07:17:08;;;;;;;4.63;2.10;;;15.00;99.90;;;;;;5012181;28;20022;-70
2022/06/26 07:19:35;;;;;;;3.55;2.30;;;14.90;99.90;;;;;;5013824;28;20496;-70
2022/06/26 07:22:03;;;;;;;3.00;1.90;;;14.80;99.90;;;;;;5013551;28;20014;-70
2022/06/26 07:24:31;;;;;;;3.53;2.10;;;14.70;99.90;;;;;;5013663;28;20100;-71
2022/06/26 07:26:58;;;;;;;3.17;2.17;;;14.60;99.90;;;;;;5013555;28;20076;-73
2022/06/26 07:29:25;;;;;;;3.60;2.10;;;14.50;99.90;;;;;;5013549;28;20438;-72
2022/06/26 07:31:53;;;;;;;4.20;2.40;;;14.50;99.90;;;;;;5013636;28;20101;-73
2022/06/26 07:34:21;;;;;;;4.32;2.35;;;14.50;99.90;;;;;;5013819;28;20029;-71
2022/06/26 07:36:50;;;;;;;3.63;2.22;;;14.40;99.90;;;;;;5013622;28;20018;-71
2022/06/26 07:39:20;;;;;;;6.30;3.78;;;14.40;99.90;;;;;;5013420;28;20026;-71
2022/06/26 07:41:49;;;;;;;6.88;3.20;;;14.40;99.90;;;;;;5013466;28;20026;-71
2022/06/26 07:44:17;;;;;;;6.15;4.50;;;14.40;99.90;;;;;;5012155;28;20367;-72
2022/06/26 07:46:44;;;;;;;7.40;3.80;;;14.40;99.90;;;;;;5012177;28;20032;-71
2022/06/26 07:49:12;;;;;;;6.88;4.38;;;14.30;99.90;;;;;;5013461;28;20483;-71
2022/06/26 07:51:40;;;;;;;7.10;4.20;;;14.30;99.90;;;;;;5011918;28;20155;-71
2022/06/26 07:54:07;;;;;;;8.43;4.43;;;14.30;99.90;;;;;;5013268;28;20026;-71
2022/06/26 07:56:34;;;;;;;6.93;3.92;;;14.30;99.90;;;;;;5013296;28;20022;-71
2022/06/26 07:59:02;;;;;;;6.68;4.70;;;14.30;99.90;;;;;;5013204;28;20018;-71
2022/06/26 08:01:29;;;;;;;8.30;4.10;;;14.30;99.90;;;;;;5013746;28;20417;-72
2022/06/26 08:03:57;;;;;;;8.50;4.70;;;14.30;99.90;;;;;;5013161;28;20505;-71
2022/06/26 08:06:24;;;;;;;7.88;4.32;;;14.30;99.90;;;;;;5011584;28;20414;-71
2022/06/26 08:08:52;;;;;;;6.03;4.05;;;14.30;99.90;;;;;;5011834;28;20553;-72
2022/06/26 08:11:20;;;;;;;7.95;4.38;;;14.30;99.90;;;;;;5013059;28;20033;-72
2022/06/26 08:13:47;;;;;;;7.50;4.40;;;14.30;99.90;;;;;;5013129;28;20045;-72
2022/06/26 08:16:15;;;;;;;6.95;4.60;;;14.30;99.90;;;;;;5013130;28;20060;-72
2022/06/26 08:18:42;;;;;;;7.63;3.92;;;14.30;99.90;;;;;;5013087;28;20363;-72
2022/06/26 08:23:57;;;;;;;6.47;3.97;;;14.20;99.90;;;;;;5013067;28;20029;-70
2022/06/26 08:26:24;;;;;;;8.60;4.30;;;14.20;99.90;;;;;;5013054;28;20458;-71
2022/06/26 08:28:52;;;;;;;6.60;4.57;;;14.10;99.90;;;;;;5013612;28;20025;-71
2022/06/26 08:31:20;;;;;;;6.28;3.97;;;14.10;99.90;;;;;;5016965;28;20050;-71
2022/06/26 08:33:47;;;;;;;6.43;5.22;;;14.10;99.90;;;;;;5017060;28;20414;-71
2022/06/26 08:36:14;;;;;;;8.30;5.20;;;14.00;99.90;;;;;;5016950;28;20021;-71
2022/06/26 08:38:41;;;;;;;6.88;4.70;;;14.10;99.90;;;;;;5015532;28;20068;-70
2022/06/26 08:41:10;;;;;;;7.53;4.53;;;14.00;99.90;;;;;;5016890;28;20018;-71
2022/06/26 08:43:40;;;;;;;8.55;5.35;;;14.10;99.90;;;;;;5016722;28;20036;-71
2022/06/26 08:46:08;;;;;;;8.37;5.13;;;14.10;99.90;;;;;;5016688;28;20466;-70
2022/06/26 08:48:43;;;;;;;8.43;6.00;;;14.10;99.90;;;;;;5017152;28;20101;-71
2022/06/26 08:51:11;;;;;;;9.95;6.45;;;14.10;99.90;;;;;;5017131;28;20026;-70
2022/06/26 08:53:41;;;;;;;9.23;5.80;;;14.20;99.90;;;;;;5016573;28;20022;-70
2022/06/26 08:56:08;;;;;;;10.38;6.45;;;14.10;99.90;;;;;;5015129;28;20078;-71
2022/06/26 08:58:36;;;;;;;11.25;6.38;;;14.10;99.90;;;;;;5015123;28;20022;-70
2022/06/26 09:01:05;;;;;;;6.32;5.10;;;14.00;99.90;;;;;;5016677;28;20088;-71
2022/06/26 09:03:34;;;;;;;8.15;5.57;;;14.00;99.90;;;;;;5015013;28;20398;-70
2022/06/26 09:06:03;;;;;;;7.97;5.22;;;14.00;99.90;;;;;;5016258;28;20053;-73
2022/06/26 09:08:31;;;;;;;7.45;4.93;;;14.00;99.90;;;;;;5016288;28;20033;-72
2022/06/26 09:10:59;;;;;;;9.77;6.15;;;13.90;99.90;;;;;;5014743;28;20120;-72
2022/06/26 09:13:38;;;;;;;7.78;5.50;;;13.80;99.90;;;;;;5016217;28;20101;-72
2022/06/26 09:16:05;;;;;;;10.20;6.63;;;13.80;99.90;;;;;;5014927;28;20026;-72
2022/06/26 09:18:38;;;;;;;11.90;7.50;;;13.80;99.90;;;;;;5016103;28;20018;-73
2022/06/26 09:21:06;;;;;;;12.23;7.80;;;13.70;99.90;;;;;;5016022;28;20022;-72
2022/06/26 09:23:36;;;;;;;11.25;7.32;;;13.70;99.90;;;;;;5015958;28;20057;-72
2022/06/26 09:26:05;;;;;;;9.00;7.40;;;13.70;99.90;;;;;;5016092;28;20029;-73
2022/06/26 09:28:33;;;;;;;10.38;6.68;;;13.70;99.90;;;;;;5015895;28;20022;-73
2022/06/26 09:31:03;;;;;;;10.35;6.93;;;13.60;99.90;;;;;;5014390;28;20028;-73
2022/06/26 09:33:32;;;;;;;10.27;7.45;;;13.50;99.90;;;;;;5015857;28;20032;-73
2022/06/26 09:36:01;;;;;;;10.30;6.18;;;13.50;99.90;;;;;;5015812;28;20018;-73
2022/06/26 09:38:33;;;;;;;7.43;5.47;;;13.50;99.90;;;;;;5014392;28;20099;-72
2022/06/26 09:41:06;;;;;;;7.57;5.80;;;13.50;99.90;;;;;;5016018;28;20029;-72
2022/06/26 09:43:35;;;;;;;6.90;4.82;;;13.50;99.90;;;;;;5016029;28;20054;-73
2022/06/26 09:46:05;;;;;;;8.40;5.18;;;13.50;99.90;;;;;;5015647;28;20449;-73
2022/06/26 09:48:33;;;;;;;7.03;4.60;;;13.50;99.90;;;;;;5014326;28;20367;-74
2022/06/26 09:51:02;;;;;;;6.22;3.90;;;13.50;99.90;;;;;;5014128;28;20030;-73
2022/06/26 09:53:30;;;;;;;7.00;4.47;;;13.50;99.90;;;;;;5015491;28;20025;-73
2022/06/26 09:56:00;;;;;;;6.18;4.53;;;13.50;99.90;;;;;;5015322;28;20454;-74
2022/06/26 09:58:28;;;;;;;7.07;5.20;;;13.50;99.90;;;;;;5015192;28;20024;-74
2022/06/26 10:06:30;;;;;;;6.78;4.38;;;13.50;99.90;;;;;;5015031;28;20131;-73
2022/06/26 10:09:00;;;;;;;8.75;5.07;;;13.50;99.90;;;;;;5015177;28;20083;-73
2022/06/26 10:11:30;;;;;;;6.47;4.85;;;13.50;99.90;;;;;;5015115;28;20021;-72
2022/06/26 10:14:08;;;;;;;7.28;4.72;;;13.50;99.90;;;;;;5013932;28;20029;-73
2022/06/26 10:16:38;;;;;;;6.57;4.10;;;13.50;99.90;;;;;;5015150;28;20037;-74
2022/06/26 10:19:44;;;;;;;5.28;3.78;;;13.50;99.90;;;;;;5014942;28;20018;-73
2022/06/26 10:22:13;;;;;;;5.13;3.30;;;13.50;99.90;;;;;;4992646;28;20344;-74
2022/06/26 10:24:58;;;;;;;5.05;3.40;;;13.60;99.90;;;;;;5014953;28;20021;-73
2022/06/26 10:27:31;;;;;;;5.10;3.80;;;13.60;99.90;;;;;;5014918;28;20029;-73
2022/06/26 10:30:11;;;;;;;5.07;3.53;;;13.60;99.90;;;;;;5013631;28;20022;-73
2022/06/26 10:32:39;;;;;;;3.97;2.97;;;13.70;99.90;;;;;;5014630;28;20026;-73
2022/06/26 10:35:08;;;;;;;6.28;3.00;;;13.70;99.90;;;;;;5015123;28;20378;-73
2022/06/26 10:37:46;;;;;;;4.45;3.10;;;13.60;99.90;;;;;;5014640;28;20486;-72
2022/06/26 10:43:12;;;;;;;3.53;2.47;;;13.50;99.90;;;;;;5014568;28;20386;-73
2022/06/26 10:45:41;;;;;;;4.57;2.95;;;13.60;99.90;;;;;;5015041;28;20073;-73
2022/06/26 10:48:20;;;;;;;3.92;3.03;;;13.70;99.90;;;;;;5014452;28;20108;-72
2022/06/26 10:50:57;;;;;;;3.80;2.63;;;13.70;99.90;;;;;;5014472;28;20025;-72
2022/06/26 10:53:26;;;;;;;4.97;3.60;;;13.60;99.90;;;;;;5013821;28;20474;-73
2022/06/26 10:55:58;;;;;;;3.63;2.75;;;13.60;99.90;;;;;;5014328;28;20022;-72
2022/06/26 10:58:37;;;;;;;4.57;3.45;;;13.60;99.90;;;;;;5014754;28;20037;-72
2022/06/26 11:01:06;;;;;;;6.13;3.70;;;13.60;99.90;;;;;;5012932;28;20563;-72
2022/06/26 11:03:34;;;;;;;6.63;3.95;;;13.60;99.90;;;;;;5014100;28;20050;-73
2022/06/26 11:06:06;;;;;;;4.53;3.50;;;13.60;99.90;;;;;;5013779;28;20053;-72
2022/06/26 11:08:36;;;;;;;5.85;3.60;;;13.60;99.90;;;;;;5013960;28;20026;-73
2022/06/26 11:11:28;;;;;;;4.82;3.40;;;13.50;99.90;;;;;;5014402;28;20022;-73
2022/06/26 11:13:58;;;;;;;7.25;4.05;;;13.50;99.90;;;;;;5014022;28;20037;-73
2022/06/26 11:16:42;;;;;;;7.15;3.78;;;13.40;99.90;;;;;;5013982;28;20152;-73
2022/06/26 11:19:26;;;;;;;4.90;3.83;;;13.40;99.90;;;;;;5014038;28;20026;-72
2022/06/26 11:22:11;;;;;;;6.38;4.15;;;13.30;99.90;;;;;;5012587;28;20041;-73
2022/06/26 11:24:52;;;;;;;5.15;3.20;;;13.30;99.90;;;;;;5013695;28;20529;-73
2022/06/26 11:27:27;;;;;;;5.32;3.10;;;13.40;99.90;;;;;;5012290;28;20029;-73
2022/06/26 11:29:54;;;;;;;4.03;3.15;;;13.40;99.90;;;;;;5012315;28;20050;-72
2022/06/26 11:32:23;;;;;;;4.80;3.35;;;13.40;99.90;;;;;;5013634;28;20024;-72
2022/06/26 11:34:51;;;;;;;3.97;3.20;;;13.50;99.90;;;;;;5013517;28;20084;-72
2022/06/26 11:37:32;;;;;;;5.05;3.28;;;13.40;99.90;;;;;;5013510;28;20017;-73
2022/06/26 11:40:00;;;;;;;6.68;4.07;;;13.50;99.90;;;;;;5012183;28;20033;-73
2022/06/26 11:42:27;;;;;;;6.55;3.75;;;13.60;99.90;;;;;;5013425;28;20033;-72
2022/06/26 11:44:55;;;;;;;5.22;4.10;;;13.60;99.90;;;;;;5012109;28;20026;-73
2022/06/26 11:47:23;;;;;;;7.45;4.60;;;13.60;99.90;;;;;;5012027;28;20022;-73
2022/06/26 11:49:50;;;;;;;6.28;4.50;;;13.60;99.90;;;;;;5013287;28;20108;-73
2022/06/26 11:52:18;;;;;;;6.80;4.10;;;13.60;99.90;;;;;;5013327;28;20478;-72
2022/06/26 11:54:45;;;;;;;5.40;4.07;;;13.60;99.90;;;;;;5013789;28;20018;-72
2022/06/26 11:57:13;;;;;;;4.88;3.88;;;13.60;99.90;;;;;;5013585;28;20026;-72
2022/06/26 11:59:47;;;;;;;5.95;3.90;;;13.60;99.90;;;;;;5013293;28;20014;-73
2022/06/26 12:02:25;;;;;;;7.28;4.15;;;13.60;99.90;;;;;;5013269;28;20029;-73
2022/06/26 12:05:00;;;;;;;6.35;4.45;;;13.60;99.90;;;;;;5011047;28;20044;-73
2022/06/26 12:07:46;;;;;;;6.03;4.00;;;13.60;99.90;;;;;;5013073;28;20042;-73
2022/06/26 12:10:27;;;;;;;4.95;3.92;;;13.60;99.90;;;;;;5013107;28;20082;-73
2022/06/26 12:12:54;;;;;;;6.13;3.85;;;13.60;99.90;;;;;;5013410;28;20359;-73
2022/06/26 12:15:23;;;;;;;6.53;3.53;;;13.60;99.90;;;;;;5011704;28;20026;-73
2022/06/26 12:17:57;;;;;;;5.18;3.85;;;13.60;99.90;;;;;;5013112;28;20033;-73
2022/06/26 12:20:25;;;;;;;4.72;3.28;;;13.60;99.90;;;;;;5013153;28;20026;-73
2022/06/26 12:22:54;;;;;;;5.75;3.30;;;13.50;99.90;;;;;;5011600;28;20032;-72
2022/06/26 12:25:33;;;;;;;6.05;3.40;;;13.50;99.90;;;;;;5012994;28;20389;-73
2022/06/26 12:28:01;;;;;;;5.50;3.80;;;13.40;99.90;;;;;;5011690;28;20026;-73
2022/06/26 12:30:39;;;;;;;5.72;4.70;;;13.40;99.90;;;;;;5011552;28;20406;-73
2022/06/26 12:33:07;;;;;;;5.55;4.05;;;13.40;99.90;;;;;;5013001;28;20022;-73
2022/06/26 12:35:35;;;;;;;5.70;3.72;;;13.40;99.90;;;;;;5011570;28;20018;-73
2022/06/26 12:38:03;;;;;;;6.10;4.00;;;13.40;99.90;;;;;;5012885;28;20018;-74
2022/06/26 12:40:34;;;;;;;5.07;3.80;;;13.40;99.90;;;;;;5011539;28;20501;-73
2022/06/26 12:43:03;;;;;;;7.03;4.75;;;13.40;99.90;;;;;;5012985;28;20025;-73
2022/06/26 12:45:31;;;;;;;7.13;4.85;;;13.30;99.90;;;;;;5012787;28;20049;-73
2022/06/26 12:47:59;;;;;;;6.60;5.30;;;13.30;99.90;;;;;;5013149;28;20050;-74
2022/06/26 12:50:26;;;;;;;8.70;7.00;;;13.20;99.90;;;;;;5012713;28;20440;-74
2022/06/26 12:52:54;;;;;;;10.20;8.68;;;13.20;99.90;;;;;;5012875;28;20048;-74
2022/06/26 12:55:22;;;;;;;12.10;8.57;;;13.20;99.90;;;;;;5011378;28;20026;-73
2022/06/26 12:57:49;;;;;;;13.15;9.57;;;13.10;99.90;;;;;;5012755;28;20125;-73
2022/06/26 13:00:17;;;;;;;10.60;8.52;;;13.10;99.90;;;;;;5012816;28;20061;-74
2022/06/26 13:02:44;;;;;;;13.77;9.57;;;13.10;99.90;;;;;;5012643;28;20112;-73
2022/06/26 13:05:11;;;;;;;10.95;8.48;;;13.10;99.90;;;;;;5010999;28;20045;-74
2022/06/26 13:07:39;;;;;;;10.23;9.10;;;13.10;99.90;;;;;;5013155;28;20033;-75